Strona główna
METAR-TAF:

METAR-TAF

Lotnisko :

Port lotniczy Władywostok

Władywostok, Rosja

Szerokość geograficzna: 43-07N, Długość geograficzna: 131-56E, wysokość: 184 m

Aktualna obserwacja pogody

Raport powstał 40 minut temu, godzina 21:30 UTC
Wiatr 2 kt od północ
Temperatura -3°C
Wilgotność 93%
Ciśnienie 1025 hPa
Widzialność 10 km lub więcej

METAR: UHWW 182130Z 35001MPS 9999 NSC M03/M04 Q1025 R25L/0///70 NOSIG RMK QFE767

czas: 08:10 (22:10 UTC)

Prognoza

Raport powstał 2 godziny i 15 minut temu, godzina 19:55 UTC
Prognoza ważna od 18 godzina 21 UTC do 19 godzina 21 UTC
Wiatr 6 kt od północ
Widzialność: 5000 m
zamglenie
Od 19 godzina 0000 UTC
Wiatr 6 kt od północny zachód
Widzialność 10 km lub więcej
Rozproszone chmury na wysokości 3000 ft
Stopniowe zmiany
od 19 godzina 11 UTC do 19 godzina 12 UTC
Wiatr 2 kt z kierunków zmiennych
Rozproszone chmury na wysokości 2000 ft

TAF: UHWW 181955Z 1821/1921 36003MPS 5000 BR NSC FM190000 32003MPS 9999 SCT030 BECMG 1911/1912 VRB01MPS SCT020

Obserwacja i prognoza pogody dla ponad 4000 lotnisk (raport METAR i TAF).

Dostępne stacje oznaczono żółtymi i czerwonymi punktami na mapie.

Najedź kursorem aby zobaczyć nazwę stacji.

Kliknij aby zobaczyć obserwacje i prognozy pogody.

Aby zmienić mapę: kliknij na zielony przycisk z czarnym krzyżykiem, aby powiększyć; na zielony przycisk z myślnikiem, aby pomniejszyć; na zielone strzałki, aby przejść do map sąsiednich.


METAR-TAF: